Time;durP1;ratioP1;P1;durP2;ratioP2;P2;SDS_P1;SDS_P2;PMS_P1;PMS_P2;Temp;Humidity;BMP_temperature;BMP_pressure;BME280_temperature;BME280_humidity;BME280_pressure;Samples;Min_cycle;Max_cycle;Signal;HPM_P1;HPM_P2
2023/06/16 00:00:37;;;;;;;6.63;5.32;;;;;17.80;98694.00;;;;5073145;28;20119;-64
2023/06/16 00:03:05;;;;;;;9.52;4.70;;;;;17.60;98697.00;;;;5073240;28;20045;-62
2023/06/16 00:05:34;;;;;;;5.18;4.68;;;;;17.50;98697.00;;;;5072189;28;20409;-61
2023/06/16 00:08:03;;;;;;;5.85;4.90;;;;;17.50;98688.00;;;;5073104;28;20493;-61
2023/06/16 00:10:30;;;;;;;5.65;5.05;;;;;17.60;98688.00;;;;5072777;28;20404;-61
2023/06/16 00:12:56;;;;;;;6.13;4.72;;;;;17.60;98689.00;;;;5072586;28;20071;-61
2023/06/16 00:15:24;;;;;;;6.70;5.03;;;;;17.60;98692.00;;;;5073678;28;20456;-61
2023/06/16 00:17:50;;;;;;;6.00;4.18;;;;;17.50;98695.00;;;;5057402;28;20390;-61
2023/06/16 00:20:21;;;;;;;5.70;5.07;;;;;17.50;98686.00;;;;5072895;28;20044;-61
2023/06/16 00:22:48;;;;;;;5.22;4.72;;;;;17.40;98692.00;;;;5071755;28;20382;-62
2023/06/16 00:25:17;;;;;;;4.95;4.45;;;;;17.30;98689.00;;;;5073586;28;20448;-62
2023/06/16 00:27:44;;;;;;;9.43;5.57;;;;;17.20;98685.00;;;;5073353;28;20041;-61
2023/06/16 00:30:12;;;;;;;8.07;4.78;;;;;17.20;98688.00;;;;5072113;28;20079;-62
2023/06/16 00:32:38;;;;;;;5.03;4.53;;;;;17.20;98686.00;;;;5071815;28;20045;-61
2023/06/16 00:35:06;;;;;;;6.65;4.93;;;;;17.20;98690.00;;;;5073952;28;20048;-62
2023/06/16 00:37:35;;;;;;;5.38;4.68;;;;;17.20;98688.00;;;;5073303;28;20135;-62
2023/06/16 00:40:04;;;;;;;5.53;5.00;;;;;17.30;98683.00;;;;5074313;28;20048;-62
2023/06/16 00:42:30;;;;;;;8.68;5.65;;;;;17.30;98678.00;;;;5073047;28;20404;-63
2023/06/16 00:44:58;;;;;;;6.97;5.30;;;;;17.30;98677.00;;;;5073359;28;20090;-62
2023/06/16 00:47:25;;;;;;;5.78;4.90;;;;;17.20;98676.00;;;;5055371;28;20044;-62
2023/06/16 00:49:52;;;;;;;6.15;5.43;;;;;17.10;98674.00;;;;5058872;28;20665;-62
2023/06/16 00:52:23;;;;;;;7.82;5.65;;;;;17.00;98678.00;;;;5078002;28;20127;-62
2023/06/16 00:54:50;;;;;;;6.50;5.20;;;;;16.90;98680.00;;;;5060271;28;20573;-63
2023/06/16 00:57:17;;;;;;;8.40;5.13;;;;;16.90;98681.00;;;;5077614;28;20125;-62
2023/06/16 00:59:44;;;;;;;8.30;5.82;;;;;16.90;98672.00;;;;5079265;28;20052;-62
2023/06/16 01:02:10;;;;;;;7.30;5.43;;;;;16.80;98678.00;;;;5078598;28;20055;-62
2023/06/16 01:04:37;;;;;;;6.20;5.05;;;;;16.80;98675.00;;;;5060864;28;20112;-62
2023/06/16 01:07:09;;;;;;;7.07;4.57;;;;;16.80;98679.00;;;;5078546;28;20068;-63
2023/06/16 01:09:56;;;;;;;6.72;5.00;;;;;16.80;98680.00;;;;5080256;28;20101;-61
2023/06/16 01:12:23;;;;;;;5.63;5.00;;;;;16.60;98673.00;;;;5077898;28;20048;-61
2023/06/16 01:15:01;;;;;;;7.18;5.10;;;;;16.60;98679.00;;;;5079864;28;20083;-62
2023/06/16 01:17:30;;;;;;;6.13;5.20;;;;;16.60;98678.00;;;;5055096;28;20467;-62
2023/06/16 01:20:09;;;;;;;7.80;5.32;;;;;16.50;98684.00;;;;5055961;28;20584;-61
2023/06/16 01:22:48;;;;;;;5.38;4.82;;;;;16.40;98683.00;;;;5071857;28;20060;-61
2023/06/16 01:25:15;;;;;;;7.78;5.05;;;;;16.40;98671.00;;;;5072113;28;20131;-62
2023/06/16 01:27:47;;;;;;;5.85;5.15;;;;;16.40;98676.00;;;;5071756;28;20059;-61
2023/06/16 01:30:16;;;;;;;6.20;4.75;;;;;16.30;98681.00;;;;5072849;28;20049;-62
2023/06/16 01:32:46;;;;;;;6.25;5.20;;;;;16.30;98668.00;;;;5071753;28;20041;-63
2023/06/16 01:35:14;;;;;;;8.00;4.95;;;;;16.20;98663.00;;;;5071897;28;20059;-62
2023/06/16 01:37:43;;;;;;;6.20;5.30;;;;;16.20;98673.00;;;;5073299;28;20080;-62
2023/06/16 01:40:11;;;;;;;6.15;5.00;;;;;16.10;98668.00;;;;5071985;28;20072;-62
2023/06/16 01:42:38;;;;;;;6.43;5.18;;;;;16.20;98672.00;;;;5072151;28;20053;-61
2023/06/16 01:45:05;;;;;;;5.63;5.00;;;;;16.20;98679.00;;;;5073294;28;20051;-62
2023/06/16 01:47:34;;;;;;;5.55;4.97;;;;;16.20;98680.00;;;;5072646;28;20094;-62
2023/06/16 01:50:01;;;;;;;8.70;5.28;;;;;16.20;98672.00;;;;5071527;28;20056;-62
2023/06/16 01:52:28;;;;;;;5.75;5.13;;;;;16.20;98669.00;;;;5071439;28;20045;-62
2023/06/16 01:54:55;;;;;;;6.20;5.05;;;;;16.00;98669.00;;;;5072798;28;20378;-62
2023/06/16 01:57:22;;;;;;;7.60;5.10;;;;;15.80;98671.00;;;;5071849;28;20057;-62
2023/06/16 02:00:01;;;;;;;6.05;4.85;;;;;15.80;98679.00;;;;5054651;28;20119;-62
2023/06/16 02:02:45;;;;;;;5.95;5.32;;;;;15.80;98673.00;;;;5074010;28;20094;-62
2023/06/16 02:05:16;;;;;;;7.63;5.20;;;;;15.90;98670.00;;;;5071710;28;20040;-62
2023/06/16 02:07:44;;;;;;;11.60;5.28;;;;;15.90;98670.00;;;;5071216;28;20048;-62
2023/06/16 02:10:11;;;;;;;6.03;5.43;;;;;15.90;98680.00;;;;5057248;28;20110;-62
2023/06/16 02:12:39;;;;;;;7.65;5.20;;;;;16.00;98682.00;;;;5075162;28;20040;-62
2023/06/16 02:15:06;;;;;;;5.93;5.22;;;;;16.00;98682.00;;;;5073812;28;20040;-62
2023/06/16 02:17:33;;;;;;;6.75;6.05;;;;;16.10;98670.00;;;;5073775;28;20476;-62
2023/06/16 02:20:00;;;;;;;6.88;5.03;;;;;16.10;98667.00;;;;5073451;28;20048;-61
2023/06/16 02:22:26;;;;;;;8.23;6.95;;;;;16.10;98677.00;;;;5075071;28;20040;-61
2023/06/16 02:24:54;;;;;;;7.45;5.57;;;;;16.10;98673.00;;;;5074863;28;20035;-62
2023/06/16 02:27:21;;;;;;;7.07;5.85;;;;;16.20;98677.00;;;;5073430;28;20075;-62
2023/06/16 02:29:48;;;;;;;7.10;5.82;;;;;16.10;98679.00;;;;5074625;28;20094;-62
2023/06/16 02:32:14;;;;;;;7.63;6.10;;;;;16.00;98684.00;;;;5074630;28;20161;-61
2023/06/16 02:34:43;;;;;;;7.18;5.85;;;;;15.80;98682.00;;;;5073608;28;20477;-61
2023/06/16 02:37:12;;;;;;;7.88;5.28;;;;;15.70;98685.00;;;;5074682;28;20060;-61
2023/06/16 02:39:39;;;;;;;6.38;5.32;;;;;15.80;98681.00;;;;5074820;28;20055;-62
2023/06/16 02:42:07;;;;;;;6.78;5.55;;;;;15.80;98685.00;;;;5074742;28;20049;-61
2023/06/16 02:44:34;;;;;;;6.28;5.68;;;;;15.80;98680.00;;;;5073049;28;20127;-62
2023/06/16 02:47:03;;;;;;;6.30;5.32;;;;;15.90;98682.00;;;;5056876;28;20049;-61
2023/06/16 02:49:31;;;;;;;8.60;6.53;;;;;15.80;98677.00;;;;5072887;28;20098;-62
2023/06/16 02:51:58;;;;;;;6.90;6.20;;;;;15.70;98672.00;;;;5073011;28;20048;-61
2023/06/16 02:54:26;;;;;;;10.93;5.63;;;;;15.70;98674.00;;;;5072945;28;20127;-61
2023/06/16 02:56:54;;;;;;;5.97;5.43;;;;;15.70;98669.00;;;;5056567;28;20473;-62
2023/06/16 02:59:30;;;;;;;7.45;5.70;;;;;15.70;98676.00;;;;5072847;28;20497;-63
2023/06/16 03:01:57;;;;;;;6.65;4.97;;;;;15.60;98677.00;;;;5072907;28;20497;-62
2023/06/16 03:04:36;;;;;;;7.32;5.38;;;;;15.60;98681.00;;;;5073895;28;20119;-62
2023/06/16 03:07:10;;;;;;;6.40;5.10;;;;;15.60;98675.00;;;;5072587;28;20055;-62
2023/06/16 03:09:43;;;;;;;6.55;5.47;;;;;15.50;98676.00;;;;5072454;28;20063;-61
2023/06/16 03:12:11;;;;;;;7.13;5.93;;;;;15.40;98672.00;;;;5073911;28;20036;-62
2023/06/16 03:14:48;;;;;;;7.18;5.95;;;;;15.40;98678.00;;;;5072605;28;20048;-62
2023/06/16 03:17:20;;;;;;;8.60;6.07;;;;;15.50;98671.00;;;;5072471;28;20481;-61
2023/06/16 03:19:48;;;;;;;7.03;6.05;;;;;15.30;98674.00;;;;5071584;28;20417;-62
2023/06/16 03:22:18;;;;;;;6.82;6.03;;;;;15.10;98672.00;;;;5072068;28;20044;-62
2023/06/16 03:24:46;;;;;;;7.43;6.57;;;;;15.00;98671.00;;;;5055727;28;20048;-61
2023/06/16 03:27:15;;;;;;;8.40;6.43;;;;;15.00;98671.00;;;;5072501;28;20071;-61
2023/06/16 03:29:58;;;;;;;10.40;6.53;;;;;15.00;98676.00;;;;5072117;28;20060;-62
2023/06/16 03:32:27;;;;;;;7.20;5.88;;;;;14.90;98667.00;;;;5072101;28;20145;-62
2023/06/16 03:34:55;;;;;;;7.60;6.00;;;;;14.90;98672.00;;;;5072231;28;20051;-62
2023/06/16 03:37:21;;;;;;;6.38;5.32;;;;;15.00;98666.00;;;;5073252;28;20071;-62
2023/06/16 03:39:48;;;;;;;7.90;5.47;;;;;15.10;98664.00;;;;5055466;28;20044;-62
2023/06/16 03:42:15;;;;;;;6.10;5.25;;;;;15.20;98674.00;;;;5055322;28;20056;-62
2023/06/16 03:44:42;;;;;;;7.53;6.10;;;;;15.30;98669.00;;;;5072803;28;20079;-61
2023/06/16 03:47:09;;;;;;;7.00;5.95;;;;;15.30;98676.00;;;;5074141;28;20053;-62
2023/06/16 03:49:37;;;;;;;6.65;5.97;;;;;15.40;98673.00;;;;5072166;28;20398;-62
2023/06/16 03:52:04;;;;;;;7.03;5.70;;;;;15.40;98684.00;;;;5072049;28;20076;-62
2023/06/16 03:54:30;;;;;;;6.72;5.95;;;;;15.30;98681.00;;;;5071627;28;20048;-62
2023/06/16 03:56:57;;;;;;;8.40;6.35;;;;;15.30;98677.00;;;;5055146;28;20045;-61
2023/06/16 03:59:26;;;;;;;6.38;5.72;;;;;15.30;98677.00;;;;5071590;28;20673;-62
2023/06/16 04:01:53;;;;;;;6.70;6.03;;;;;15.30;98679.00;;;;5055286;28;20044;-62
2023/06/16 04:04:25;;;;;;;8.38;5.88;;;;;15.40;98678.00;;;;5071692;28;20044;-62
2023/06/16 04:06:52;;;;;;;7.38;6.68;;;;;15.40;98676.00;;;;5071497;28;20645;-62
2023/06/16 04:09:20;;;;;;;10.45;8.32;;;;;15.40;98676.00;;;;5071024;28;20505;-62
2023/06/16 04:11:46;;;;;;;13.65;7.68;;;;;15.50;98678.00;;;;5072955;28;20561;-61
2023/06/16 04:14:14;;;;;;;9.25;7.38;;;;;15.60;98684.00;;;;5055260;28;20052;-62
2023/06/16 04:16:42;;;;;;;12.48;9.15;;;;;15.70;98679.00;;;;5071462;28;20059;-61
2023/06/16 04:19:11;;;;;;;7.93;6.18;;;;;15.90;98678.00;;;;5071512;28;20048;-61
2023/06/16 04:21:40;;;;;;;10.48;6.20;;;;;15.80;98676.00;;;;5071664;28;20044;-62
2023/06/16 04:24:08;;;;;;;8.23;6.75;;;;;16.00;98686.00;;;;5055119;28;20052;-62
2023/06/16 04:26:37;;;;;;;8.68;6.32;;;;;16.20;98685.00;;;;5071849;28;20398;-62
2023/06/16 04:29:05;;;;;;;10.60;6.55;;;;;16.20;98681.00;;;;5071895;28;20076;-62
2023/06/16 04:31:37;;;;;;;9.85;7.05;;;;;16.10;98685.00;;;;5071547;28;20049;-62
2023/06/16 04:34:04;;;;;;;7.30;6.20;;;;;16.10;98687.00;;;;5072103;28;20040;-62
2023/06/16 04:36:35;;;;;;;7.40;6.38;;;;;16.30;98682.00;;;;5071457;28;20643;-62
2023/06/16 04:39:11;;;;;;;6.60;6.00;;;;;16.40;98683.00;;;;5071707;28;20113;-62
2023/06/16 04:41:38;;;;;;;7.78;6.22;;;;;16.40;98684.00;;;;5072046;28;20067;-62
2023/06/16 04:44:06;;;;;;;7.00;6.30;;;;;16.40;98682.00;;;;5073327;28;20564;-62
2023/06/16 04:46:33;;;;;;;8.05;6.75;;;;;16.40;98681.00;;;;5071924;28;20049;-62
2023/06/16 04:49:00;;;;;;;8.95;7.35;;;;;16.50;98683.00;;;;5073076;28;20048;-62
2023/06/16 04:51:28;;;;;;;12.77;7.60;;;;;16.50;98677.00;;;;5074601;28;20386;-64
2023/06/16 04:53:54;;;;;;;9.27;6.57;;;;;16.60;98682.00;;;;5075337;28;20501;-62
2023/06/16 04:56:21;;;;;;;11.05;6.80;;;;;16.70;98682.00;;;;5074102;28;20055;-62
2023/06/16 04:58:48;;;;;;;8.27;6.65;;;;;16.80;98683.00;;;;5074890;28;20104;-62
2023/06/16 05:01:14;;;;;;;7.72;6.03;;;;;16.70;98686.00;;;;5075240;28;20131;-62
2023/06/16 05:03:41;;;;;;;6.82;6.10;;;;;16.60;98685.00;;;;5073879;28;20397;-62
2023/06/16 05:06:08;;;;;;;10.23;6.00;;;;;16.60;98680.00;;;;5057714;28;20052;-62
2023/06/16 05:08:35;;;;;;;10.07;5.95;;;;;16.80;98688.00;;;;5075429;28;20123;-62
2023/06/16 05:11:02;;;;;;;7.35;6.53;;;;;16.80;98680.00;;;;5078849;28;20079;-62
2023/06/16 05:13:29;;;;;;;8.15;6.47;;;;;16.90;98683.00;;;;5066313;28;20044;-62
2023/06/16 05:15:56;;;;;;;6.78;5.82;;;;;17.00;98678.00;;;;5077920;28;20080;-61
2023/06/16 05:18:24;;;;;;;11.05;6.78;;;;;17.20;98678.00;;;;5073700;28;20503;-61
2023/06/16 05:20:51;;;;;;;12.43;7.35;;;;;17.40;98681.00;;;;5073581;28;20074;-65
2023/06/16 05:23:17;;;;;;;15.98;8.98;;;;;17.50;98683.00;;;;5074638;28;20056;-62
2023/06/16 05:25:45;;;;;;;11.30;7.85;;;;;17.50;98682.00;;;;5073775;28;20048;-62
2023/06/16 05:28:12;;;;;;;13.82;10.38;;;;;17.60;98688.00;;;;5073150;28;20052;-61
2023/06/16 05:30:38;;;;;;;10.35;6.68;;;;;17.70;98680.00;;;;5056125;28;20135;-62
2023/06/16 05:33:05;;;;;;;11.15;6.28;;;;;17.70;98676.00;;;;5073162;28;20064;-61
2023/06/16 05:35:32;;;;;;;13.85;6.90;;;;;17.60;98682.00;;;;5072976;28;20049;-64
2023/06/16 05:37:59;;;;;;;7.20;6.40;;;;;17.70;98684.00;;;;5072701;28;20049;-60
2023/06/16 05:40:27;;;;;;;32.60;7.57;;;;;17.80;98681.00;;;;5072486;28;20056;-61
2023/06/16 05:42:53;;;;;;;9.48;5.90;;;;;17.70;98685.00;;;;5073673;28;20056;-61
2023/06/16 05:45:20;;;;;;;8.95;6.38;;;;;17.90;98684.00;;;;5059536;28;20386;-62
2023/06/16 05:47:47;;;;;;;11.13;6.88;;;;;18.00;98692.00;;;;5076190;28;20053;-61
2023/06/16 05:50:14;;;;;;;11.63;7.15;;;;;17.90;98693.00;;;;5075903;28;20505;-62
2023/06/16 05:52:42;;;;;;;9.00;6.97;;;;;17.80;98701.00;;;;5075876;28;20083;-63
2023/06/16 05:55:08;;;;;;;9.45;6.07;;;;;17.90;98697.00;;;;5076168;28;20459;-62
2023/06/16 05:57:41;;;;;;;12.93;6.23;;;;;18.10;98697.00;;;;5060079;28;20089;-62
2023/06/16 06:00:09;;;;;;;7.20;5.72;;;;;18.10;98691.00;;;;5075245;28;20301;-61
2023/06/16 06:02:39;;;;;;;9.43;5.93;;;;;18.30;98701.00;;;;5078214;28;20135;-62
2023/06/16 06:05:15;;;;;;;8.25;6.15;;;;;18.40;98709.00;;;;5076005;28;20048;-62
2023/06/16 06:07:42;;;;;;;8.48;5.82;;;;;18.50;98704.00;;;;5075549;28;20609;-62
2023/06/16 06:10:09;;;;;;;8.75;6.93;;;;;18.70;98708.00;;;;5075669;28;20052;-61
2023/06/16 06:12:37;;;;;;;11.85;9.13;;;;;18.80;98707.00;;;;5075583;28;20072;-62
2023/06/16 06:15:05;;;;;;;9.65;7.45;;;;;19.00;98714.00;;;;5076887;28;20032;-63
2023/06/16 06:17:31;;;;;;;8.48;5.95;;;;;19.20;98711.00;;;;5075234;28;20044;-61
2023/06/16 06:19:58;;;;;;;9.75;5.80;;;;;19.30;98719.00;;;;5058259;28;20135;-61
2023/06/16 06:22:31;;;;;;;7.10;5.60;;;;;19.40;98727.00;;;;5074611;28;20040;-61
2023/06/16 06:25:01;;;;;;;8.18;5.32;;;;;19.40;98731.00;;;;5074565;28;20083;-62
2023/06/16 06:27:27;;;;;;;8.88;5.50;;;;;19.40;98735.00;;;;5073910;28;20142;-62
2023/06/16 06:29:54;;;;;;;7.45;5.53;;;;;19.50;98726.00;;;;5074360;28;20076;-62
2023/06/16 06:32:21;;;;;;;10.50;4.78;;;;;19.60;98732.00;;;;5074388;28;20453;-62
2023/06/16 06:34:47;;;;;;;7.90;5.10;;;;;19.60;98737.00;;;;5074482;28;20044;-62
2023/06/16 06:37:18;;;;;;;8.50;5.15;;;;;19.70;98735.00;;;;5073415;28;20131;-62
2023/06/16 06:39:46;;;;;;;5.90;5.20;;;;;19.80;98736.00;;;;5074151;28;20451;-62
2023/06/16 06:42:15;;;;;;;6.35;5.15;;;;;19.90;98730.00;;;;5074067;28;20101;-62
2023/06/16 06:44:49;;;;;;;6.25;4.82;;;;;20.00;98736.00;;;;5058780;28;20051;-63
2023/06/16 06:47:18;;;;;;;7.47;5.25;;;;;20.00;98742.00;;;;5073445;28;20045;-60
2023/06/16 06:49:49;;;;;;;8.43;4.93;;;;;20.10;98746.00;;;;5073714;28;20051;-63
2023/06/16 06:52:16;;;;;;;7.22;5.00;;;;;20.20;98741.00;;;;5057126;28;20045;-63
2023/06/16 06:54:43;;;;;;;6.55;5.13;;;;;20.30;98741.00;;;;5073656;28;20046;-62
2023/06/16 06:57:11;;;;;;;7.72;5.45;;;;;20.20;98742.00;;;;5073530;28;20055;-62
2023/06/16 06:59:38;;;;;;;6.43;4.97;;;;;20.20;98750.00;;;;5074893;28;20123;-62
2023/06/16 07:02:06;;;;;;;5.68;5.07;;;;;20.40;98752.00;;;;5056866;28;20114;-62
2023/06/16 07:04:34;;;;;;;7.50;5.18;;;;;20.50;98756.00;;;;5056883;28;20497;-62
2023/06/16 07:07:02;;;;;;;10.18;5.13;;;;;20.60;98757.00;;;;5056286;28;20040;-62
2023/06/16 07:09:28;;;;;;;5.75;4.70;;;;;20.80;98760.00;;;;5073044;28;20471;-62
2023/06/16 07:11:57;;;;;;;6.90;4.90;;;;;20.90;98756.00;;;;5074515;28;20040;-61
2023/06/16 07:14:24;;;;;;;10.45;4.85;;;;;21.00;98755.00;;;;5073660;28;20033;-62
2023/06/16 07:16:51;;;;;;;5.03;4.40;;;;;21.10;98763.00;;;;5074341;28;20046;-61
2023/06/16 07:19:17;;;;;;;6.75;5.57;;;;;21.30;98760.00;;;;5074902;28;20385;-62
2023/06/16 07:21:44;;;;;;;7.75;4.95;;;;;21.40;98762.00;;;;5075177;28;20044;-62
2023/06/16 07:24:11;;;;;;;7.05;4.28;;;;;21.50;98768.00;;;;5056187;28;20131;-62
2023/06/16 07:26:37;;;;;;;8.27;4.82;;;;;21.60;98765.00;;;;5073452;28;20044;-62
2023/06/16 07:29:04;;;;;;;7.07;5.10;;;;;21.70;98763.00;;;;5073738;28;20088;-61
2023/06/16 07:31:33;;;;;;;5.65;4.93;;;;;21.70;98766.00;;;;5072640;28;20048;-61
2023/06/16 07:34:00;;;;;;;7.63;4.90;;;;;21.80;98766.00;;;;5072700;28;20075;-60
2023/06/16 07:36:26;;;;;;;6.07;4.47;;;;;21.90;98759.00;;;;5073162;28;20040;-61
2023/06/16 07:38:53;;;;;;;4.93;4.35;;;;;21.90;98758.00;;;;5056252;28;20051;-62
2023/06/16 07:41:20;;;;;;;5.15;4.53;;;;;22.10;98757.00;;;;5073251;28;20048;-62
2023/06/16 07:43:48;;;;;;;11.85;5.30;;;;;22.30;98758.00;;;;5072712;28;20416;-62
2023/06/16 07:46:17;;;;;;;7.47;4.55;;;;;22.50;98763.00;;;;5074072;28;20067;-62
2023/06/16 07:48:44;;;;;;;7.40;4.68;;;;;22.60;98761.00;;;;5075318;28;20416;-62
2023/06/16 07:51:10;;;;;;;5.78;4.75;;;;;22.70;98759.00;;;;5061009;28;20139;-63
2023/06/16 07:53:39;;;;;;;10.25;5.50;;;;;22.70;98757.00;;;;5079528;28;20090;-63
2023/06/16 07:56:06;;;;;;;14.60;8.40;;;;;22.80;98758.00;;;;5080720;28;20043;-63
2023/06/16 07:58:35;;;;;;;11.20;6.03;;;;;22.90;98753.00;;;;5081672;28;20068;-62
2023/06/16 08:01:02;;;;;;;7.75;5.47;;;;;23.00;98750.00;;;;5080680;28;20066;-63
2023/06/16 08:03:30;;;;;;;8.50;5.80;;;;;23.10;98759.00;;;;5076292;28;20059;-63
2023/06/16 08:05:57;;;;;;;5.60;4.72;;;;;23.20;98759.00;;;;5075298;28;20048;-63
2023/06/16 08:08:27;;;;;;;9.18;5.80;;;;;23.20;98753.00;;;;5077541;28;20136;-63
2023/06/16 08:10:58;;;;;;;10.13;5.63;;;;;23.30;98750.00;;;;5075264;28;20358;-63
2023/06/16 08:13:25;;;;;;;9.50;4.82;;;;;23.40;98754.00;;;;5076388;28;20083;-63
2023/06/16 08:15:52;;;;;;;7.72;4.18;;;;;23.50;98749.00;;;;5076799;28;20115;-63
2023/06/16 08:18:19;;;;;;;6.72;4.88;;;;;23.60;98746.00;;;;5075387;28;20049;-63
2023/06/16 08:20:46;;;;;;;5.72;4.20;;;;;23.70;98752.00;;;;5059596;28;20056;-63
2023/06/16 08:23:13;;;;;;;6.65;4.13;;;;;23.70;98749.00;;;;5076492;28;20619;-63
2023/06/16 08:25:39;;;;;;;7.25;5.57;;;;;23.90;98748.00;;;;5076344;28;20166;-62
2023/06/16 08:28:07;;;;;;;8.57;4.40;;;;;24.00;98745.00;;;;5074990;28;20060;-62
2023/06/16 08:30:35;;;;;;;4.28;3.72;;;;;24.10;98748.00;;;;5075616;28;20045;-63
2023/06/16 08:33:02;;;;;;;5.45;4.35;;;;;24.20;98745.00;;;;5075333;28;20049;-63
2023/06/16 08:35:28;;;;;;;6.88;4.10;;;;;24.20;98736.00;;;;5077801;28;20421;-63
2023/06/16 08:37:55;;;;;;;9.32;4.50;;;;;24.40;98742.00;;;;5076011;28;20068;-62
2023/06/16 08:40:22;;;;;;;3.83;3.13;;;;;24.50;98742.00;;;;5076485;28;20131;-62
2023/06/16 08:42:50;;;;;;;4.70;3.40;;;;;24.50;98745.00;;;;5074645;28;20413;-62
2023/06/16 08:45:20;;;;;;;3.83;3.05;;;;;24.60;98738.00;;;;5078738;28;20044;-62
2023/06/16 08:47:47;;;;;;;6.97;3.22;;;;;24.70;98743.00;;;;5079096;28;20072;-63
2023/06/16 08:50:19;;;;;;;9.68;4.80;;;;;24.70;98746.00;;;;5080280;28;20151;-62
2023/06/16 08:52:47;;;;;;;6.07;3.42;;;;;24.80;98739.00;;;;5078602;28;20059;-62
2023/06/16 08:55:15;;;;;;;16.80;5.43;;;;;24.90;98739.00;;;;5041828;28;20051;-62
2023/06/16 08:57:51;;;;;;;7.63;4.72;;;;;25.00;98737.00;;;;5075609;28;20048;-62
2023/06/16 09:00:19;;;;;;;5.43;4.28;;;;;25.10;98742.00;;;;5076419;28;20075;-62
2023/06/16 09:02:49;;;;;;;3.95;3.55;;;;;25.20;98743.00;;;;5077490;28;20131;-63
2023/06/16 09:05:18;;;;;;;5.22;3.72;;;;;25.20;98735.00;;;;5076710;28;20041;-62
2023/06/16 09:07:45;;;;;;;11.52;4.60;;;;;25.30;98737.00;;;;5079244;28;20139;-63
2023/06/16 09:10:12;;;;;;;13.70;5.15;;;;;25.40;98736.00;;;;5077575;28;20040;-63
2023/06/16 09:12:39;;;;;;;16.02;8.23;;;;;25.50;98740.00;;;;5077823;28;20052;-63
2023/06/16 09:15:08;;;;;;;7.78;4.60;;;;;25.60;98740.00;;;;5078454;28;20374;-64
2023/06/16 09:17:37;;;;;;;8.10;4.03;;;;;25.60;98739.00;;;;5060397;28;20133;-63
2023/06/16 09:20:07;;;;;;;7.03;3.83;;;;;25.70;98736.00;;;;5082637;28;20579;-63
2023/06/16 09:22:34;;;;;;;5.35;4.00;;;;;25.80;98743.00;;;;5081374;28;20105;-62
2023/06/16 09:25:05;;;;;;;9.02;4.95;;;;;25.90;98739.00;;;;5080526;28;20398;-63
2023/06/16 09:27:43;;;;;;;7.10;4.22;;;;;26.10;98735.00;;;;5082159;28;20049;-63
2023/06/16 09:30:12;;;;;;;6.75;3.80;;;;;26.40;98731.00;;;;5081993;28;20055;-63
2023/06/16 09:32:39;;;;;;;4.75;3.60;;;;;26.50;98732.00;;;;5080260;28;20064;-63
2023/06/16 09:35:19;;;;;;;5.65;3.50;;;;;26.50;98730.00;;;;5080120;28;20044;-63
2023/06/16 09:37:48;;;;;;;7.30;3.50;;;;;26.50;98729.00;;;;5079752;28;20520;-62
2023/06/16 09:40:16;;;;;;;5.13;3.50;;;;;26.50;98726.00;;;;5080156;28;20072;-63
2023/06/16 09:42:44;;;;;;;4.63;3.38;;;;;26.60;98725.00;;;;5079245;28;20045;-63
2023/06/16 09:45:15;;;;;;;3.90;3.40;;;;;26.70;98724.00;;;;5079267;28;20044;-63
2023/06/16 09:47:44;;;;;;;5.32;3.25;;;;;26.80;98717.00;;;;5079560;28;20082;-62
2023/06/16 09:50:17;;;;;;;5.78;3.75;;;;;26.80;98721.00;;;;5061929;28;20063;-62
2023/06/16 09:52:47;;;;;;;6.05;3.38;;;;;26.70;98727.00;;;;5077865;28;20052;-63
2023/06/16 09:55:15;;;;;;;4.00;3.40;;;;;26.60;98729.00;;;;5079310;28;20063;-63
2023/06/16 09:57:43;;;;;;;4.13;3.10;;;;;26.40;98724.00;;;;5063876;28;20068;-63
2023/06/16 10:00:18;;;;;;;5.88;3.78;;;;;26.30;98723.00;;;;5081486;28;20051;-62
2023/06/16 10:02:47;;;;;;;5.90;3.25;;;;;26.20;98737.00;;;;5080789;28;20053;-63
2023/06/16 10:05:18;;;;;;;4.55;3.30;;;;;26.10;98727.00;;;;5079737;28;20048;-62
2023/06/16 10:07:50;;;;;;;5.03;3.88;;;;;26.00;98724.00;;;;5063272;28;20045;-63
2023/06/16 10:10:21;;;;;;;7.07;3.72;;;;;25.90;98731.00;;;;5061511;28;20137;-62
2023/06/16 10:12:50;;;;;;;7.07;3.92;;;;;26.00;98728.00;;;;5077819;28;20052;-62
2023/06/16 10:15:21;;;;;;;4.30;3.60;;;;;26.20;98723.00;;;;5057524;28;20064;-63
2023/06/16 10:17:57;;;;;;;5.50;3.45;;;;;26.50;98717.00;;;;5071349;28;20075;-64
2023/06/16 10:20:25;;;;;;;5.82;3.58;;;;;26.60;98711.00;;;;5070678;28;20052;-65
2023/06/16 10:22:52;;;;;;;8.77;3.92;;;;;27.00;98714.00;;;;5053971;28;20044;-63
2023/06/16 10:25:20;;;;;;;3.80;2.90;;;;;27.20;98719.00;;;;5053814;28;20045;-63
2023/06/16 10:27:50;;;;;;;4.65;3.50;;;;;27.40;98716.00;;;;5070884;28;20045;-63
2023/06/16 10:30:19;;;;;;;12.85;4.75;;;;;27.50;98722.00;;;;5070263;28;20071;-63
2023/06/16 10:32:47;;;;;;;9.18;4.25;;;;;27.50;98720.00;;;;5054914;28;20048;-63
2023/06/16 10:35:14;;;;;;;5.82;3.55;;;;;27.50;98720.00;;;;5055096;28;20045;-64
2023/06/16 10:37:41;;;;;;;8.73;3.65;;;;;27.70;98717.00;;;;5054867;28;20045;-63
2023/06/16 10:40:12;;;;;;;6.80;4.03;;;;;27.90;98716.00;;;;5054534;28;20132;-63
2023/06/16 10:42:41;;;;;;;5.10;3.50;;;;;27.90;98724.00;;;;5054905;28;20131;-63
2023/06/16 10:45:31;;;;;;;5.63;4.18;;;;;28.10;98715.00;;;;5070864;28;20049;-64
2023/06/16 10:48:04;;;;;;;5.65;3.90;;;;;28.30;98712.00;;;;5071025;28;20072;-63
2023/06/16 10:50:42;;;;;;;5.20;3.30;;;;;28.40;98707.00;;;;5054992;28;20040;-63
2023/06/16 10:53:10;;;;;;;5.32;3.45;;;;;28.50;98698.00;;;;5054554;28;20123;-63
2023/06/16 10:55:41;;;;;;;5.95;3.88;;;;;28.70;98707.00;;;;5054455;28;20045;-62
2023/06/16 10:58:20;;;;;;;7.45;4.25;;;;;28.80;98700.00;;;;5069742;28;20049;-63
2023/06/16 11:01:05;;;;;;;6.32;4.20;;;;;28.60;98710.00;;;;5052764;28;20445;-62
2023/06/16 11:03:35;;;;;;;5.45;3.80;;;;;28.50;98704.00;;;;5053292;28;20052;-63
2023/06/16 11:06:03;;;;;;;6.45;3.80;;;;;28.50;98703.00;;;;5053019;28;20374;-62
2023/06/16 11:08:29;;;;;;;3.92;3.47;;;;;28.60;98701.00;;;;5052834;28;20100;-62
2023/06/16 11:11:02;;;;;;;3.55;3.25;;;;;28.50;98700.00;;;;5053756;28;20041;-63
2023/06/16 11:13:32;;;;;;;5.10;3.85;;;;;28.50;98710.00;;;;5036556;28;20081;-63
2023/06/16 11:16:00;;;;;;;5.15;3.65;;;;;28.60;98713.00;;;;5052928;28;20135;-63
2023/06/16 11:18:28;;;;;;;9.20;5.75;;;;;28.50;98712.00;;;;5053138;28;20433;-62
2023/06/16 11:21:01;;;;;;;4.68;3.95;;;;;28.30;98714.00;;;;5053550;28;20049;-63
2023/06/16 11:23:28;;;;;;;7.15;4.53;;;;;28.10;98708.00;;;;5070036;28;20051;-62
2023/06/16 11:26:07;;;;;;;3.88;3.55;;;;;28.20;98708.00;;;;5053346;28;20045;-63
2023/06/16 11:28:37;;;;;;;5.90;3.67;;;;;28.10;98696.00;;;;5064124;28;20075;-63
2023/06/16 11:31:08;;;;;;;5.68;3.58;;;;;28.20;98705.00;;;;5071845;28;20060;-63
2023/06/16 11:33:35;;;;;;;6.85;3.13;;;;;28.50;98699.00;;;;5089474;28;20072;-64
2023/06/16 11:36:23;;;;;;;3.72;3.33;;;;;28.70;98700.00;;;;5081586;28;20041;-63
2023/06/16 11:38:52;;;;;;;5.47;3.35;;;;;28.70;98688.00;;;;5083479;28;20047;-62
2023/06/16 11:41:25;;;;;;;18.77;9.70;;;;;28.90;98696.00;;;;5067208;28;20169;-62
2023/06/16 11:43:53;;;;;;;10.57;4.37;;;;;28.80;98696.00;;;;5065880;28;20052;-63
2023/06/16 11:46:23;;;;;;;5.95;4.78;;;;;28.50;98688.00;;;;5069197;28;20468;-63
2023/06/16 11:48:52;;;;;;;5.72;4.82;;;;;28.60;98685.00;;;;5064334;28;20048;-63
2023/06/16 11:51:20;;;;;;;3.90;3.50;;;;;28.60;98691.00;;;;5068267;28;20056;-63
2023/06/16 11:53:47;;;;;;;5.43;3.70;;;;;28.40;98691.00;;;;5059209;28;20080;-63
2023/06/16 11:56:16;;;;;;;8.75;5.32;;;;;28.40;98685.00;;;;5057384;28;20132;-64
2023/06/16 11:58:44;;;;;;;6.13;3.95;;;;;28.50;98680.00;;;;5068573;28;20103;-65
2023/06/16 12:01:14;;;;;;;3.85;3.45;;;;;28.60;98690.00;;;;5053242;28;20063;-64
2023/06/16 12:03:43;;;;;;;5.68;3.88;;;;;28.50;98696.00;;;;5068646;28;20041;-63
2023/06/16 12:06:30;;;;;;;6.75;3.63;;;;;28.10;98693.00;;;;5052956;28;20124;-64
2023/06/16 12:08:57;;;;;;;4.18;3.47;;;;;27.90;98690.00;;;;5051508;28;20059;-63
2023/06/16 12:11:28;;;;;;;4.40;3.92;;;;;28.10;98684.00;;;;5052050;28;20416;-63
2023/06/16 12:13:56;;;;;;;3.63;3.15;;;;;28.10;98688.00;;;;5068368;28;20127;-63
2023/06/16 12:16:52;;;;;;;6.68;3.03;;;;;28.10;98684.00;;;;5053426;28;20033;-63
2023/06/16 12:19:19;;;;;;;5.95;3.78;;;;;28.00;98676.00;;;;5052843;28;20045;-63
2023/06/16 12:21:51;;;;;;;5.65;3.38;;;;;28.20;98671.00;;;;5068146;28;20383;-63
2023/06/16 12:24:22;;;;;;;3.92;3.53;;;;;28.60;98674.00;;;;5051219;28;20049;-63